Preview of NWS' New Version of Forecast
This preview is not operational and should not be used for support decisions.

Terminal Aerodrome Forecast (TAF)

Issued by National Weather Service (NWS)

                            
000
FTUS42 KMFL 260904 AAA
TAFMIA
TAF AMD
KMIA 260904Z 2609/2712 11009KT P6SM VCSH FEW015 SCT025 BKN100
     FM261000 11008KT 6SM SHRA SCT025 OVC035
     FM261400 12013KT 6SM SHRA VCTS FEW007 SCT015 BKN025CB=